Time;durP1;ratioP1;P1;durP2;ratioP2;P2;SDS_P1;SDS_P2;PMS_P1;PMS_P2;Temp;Humidity;BMP_temperature;BMP_pressure;BME280_temperature;BME280_humidity;BME280_pressure;Samples;Min_cycle;Max_cycle;Signal;HPM_P1;HPM_P2
2023/10/11 00:00:33;;;;;;;;;;;14.80;99.90;;;;;;4969103;28;19933;-72
2023/10/11 00:03:05;;;;;;;;;;;14.70;99.90;;;;;;4964005;28;19910;-72
2023/10/11 00:05:40;;;;;;;;;;;14.70;99.90;;;;;;4966322;28;19914;-71
2023/10/11 00:08:08;;;;;;;;;;;14.60;99.90;;;;;;4960876;28;19910;-72
2023/10/11 00:10:47;;;;;;;;;;;14.60;99.90;;;;;;4967614;28;20285;-71
2023/10/11 00:13:15;;;;;;;;;;;14.60;99.90;;;;;;4962321;28;20166;-72
2023/10/11 00:15:41;;;;;;;;;;;14.60;99.90;;;;;;4949600;28;20266;-72
2023/10/11 00:18:07;;;;;;;;;;;14.60;99.90;;;;;;4966821;28;19914;-72
2023/10/11 00:20:57;;;;;;;;;;;14.60;99.90;;;;;;4963273;28;19995;-71
2023/10/11 00:23:22;;;;;;;;;;;14.60;99.90;;;;;;4966497;28;19918;-72
2023/10/11 00:25:50;;;;;;;;;;;14.60;99.90;;;;;;4966109;28;20341;-72
2023/10/11 00:28:16;;;;;;;;;;;14.60;99.90;;;;;;4969039;28;19910;-72
2023/10/11 00:30:46;;;;;;;;;;;14.60;99.90;;;;;;4963303;28;19917;-72
2023/10/11 00:33:12;;;;;;;;;;;14.60;99.90;;;;;;4960295;28;20227;-71
2023/10/11 00:35:42;;;;;;;;;;;14.50;99.90;;;;;;4967287;28;19937;-72
2023/10/11 00:38:11;;;;;;;;;;;14.40;99.90;;;;;;4964961;28;19960;-71
2023/10/11 00:40:37;;;;;;;;;;;14.30;99.90;;;;;;4967552;28;19909;-71
2023/10/11 00:43:03;;;;;;;;;;;14.20;99.90;;;;;;4967448;28;19914;-71
2023/10/11 00:45:31;;;;;;;;;;;14.20;99.90;;;;;;4960623;28;20357;-72
2023/10/11 00:47:59;;;;;;;;;;;14.20;99.90;;;;;;4963931;28;19914;-72
2023/10/11 00:50:25;;;;;;;;;;;14.20;99.90;;;;;;4966896;28;19918;-72
2023/10/11 00:52:51;;;;;;;;;;;14.20;99.90;;;;;;4964569;28;20367;-72
2023/10/11 00:55:23;;;;;;;;;;;14.20;99.90;;;;;;4966774;28;19929;-71
2023/10/11 00:57:49;;;;;;;;;;;14.20;99.90;;;;;;4965498;28;19914;-72
2023/10/11 01:00:16;;;;;;;;;;;14.20;99.90;;;;;;4964278;28;19913;-72
2023/10/11 01:02:45;;;;;;;;;;;14.20;99.90;;;;;;4966909;28;19918;-72
2023/10/11 01:05:11;;;;;;;;;;;14.20;99.90;;;;;;4964385;28;19926;-71
2023/10/11 01:07:37;;;;;;;;;;;14.20;99.90;;;;;;4966341;28;19969;-72
2023/10/11 01:10:05;;;;;;;;;;;14.20;99.90;;;;;;4965920;28;19914;-72
2023/10/11 01:12:30;;;;;;;;;;;14.20;99.90;;;;;;4965969;28;19909;-72
2023/10/11 01:14:59;;;;;;;;;;;14.20;99.90;;;;;;4965241;28;19921;-71
2023/10/11 01:17:26;;;;;;;;;;;14.30;99.90;;;;;;4965663;28;19910;-72
2023/10/11 01:19:52;;;;;;;;;;;14.20;99.90;;;;;;4962863;28;19910;-72
2023/10/11 01:22:21;;;;;;;;;;;14.00;99.90;;;;;;4964224;28;19914;-71
2023/10/11 01:24:50;;;;;;;;;;;13.90;99.90;;;;;;4959468;28;20349;-72
2023/10/11 01:27:16;;;;;;;;;;;13.90;99.90;;;;;;4960611;28;19990;-72
2023/10/11 01:29:41;;;;;;;;;;;13.90;99.90;;;;;;4958372;28;20479;-72
2023/10/11 01:32:07;;;;;;;;;;;13.90;99.90;;;;;;4963490;28;19913;-72
2023/10/11 01:34:32;;;;;;;;;;;13.90;99.90;;;;;;4957958;28;19993;-72
2023/10/11 01:36:58;;;;;;;;;;;13.90;99.90;;;;;;4961454;28;19909;-71
2023/10/11 01:39:24;;;;;;;;;;;13.90;99.90;;;;;;4962525;28;19918;-71
2023/10/11 01:41:54;;;;;;;;;;;13.90;99.90;;;;;;4959332;28;19922;-72
2023/10/11 01:44:22;;;;;;;;;;;13.90;99.90;;;;;;4960603;28;19932;-72
2023/10/11 01:46:48;;;;;;;;;;;13.90;99.90;;;;;;4962304;28;20384;-72
2023/10/11 01:49:14;;;;;;;;;;;13.90;99.90;;;;;;4964647;28;19957;-72
2023/10/11 01:51:46;;;;;;;;;;;13.90;99.90;;;;;;4958665;28;20497;-72
2023/10/11 01:54:12;;;;;;;;;;;13.90;99.90;;;;;;4962646;28;19918;-72
2023/10/11 01:56:41;;;;;;;;;;;13.90;99.90;;;;;;4963520;28;19918;-72
2023/10/11 01:59:07;;;;;;;;;;;13.90;99.90;;;;;;4957109;28;20227;-72
2023/10/11 02:01:43;;;;;;;;;;;13.80;99.90;;;;;;4963830;28;19918;-72
2023/10/11 02:04:20;;;;;;;;;;;13.80;99.90;;;;;;4959601;28;19957;-71
2023/10/11 02:06:47;;;;;;;;;;;13.80;99.90;;;;;;4964214;28;20000;-71
2023/10/11 02:09:13;;;;;;;;;;;13.70;99.90;;;;;;4960998;28;19909;-72
2023/10/11 02:11:41;;;;;;;;;;;13.70;99.90;;;;;;4965506;28;19937;-72
2023/10/11 02:14:07;;;;;;;;;;;13.80;99.90;;;;;;4961296;28;20424;-71
2023/10/11 02:16:33;;;;;;;;;;;13.80;99.90;;;;;;4966818;28;19954;-72
2023/10/11 02:18:58;;;;;;;;;;;13.70;99.90;;;;;;4964788;28;19914;-73
2023/10/11 02:21:29;;;;;;;;;;;13.70;99.90;;;;;;4963864;28;19910;-72
2023/10/11 02:23:56;;;;;;;;;;;13.70;99.90;;;;;;4964570;28;19910;-72
2023/10/11 02:26:28;;;;;;;;;;;13.60;99.90;;;;;;4957795;28;20298;-71
2023/10/11 02:28:54;;;;;;;;;;;13.60;99.90;;;;;;4961645;28;19914;-72
2023/10/11 02:31:25;;;;;;;;;;;13.50;99.90;;;;;;4960583;28;20056;-72
2023/10/11 02:33:51;;;;;;;;;;;13.50;99.90;;;;;;4961709;28;19919;-72
2023/10/11 02:36:18;;;;;;;;;;;13.50;99.90;;;;;;4960967;28;20389;-71
2023/10/11 02:38:50;;;;;;;;;;;13.50;99.90;;;;;;4958490;28;19953;-72
2023/10/11 02:41:20;;;;;;;;;;;13.50;99.90;;;;;;4963368;28;19917;-72
2023/10/11 02:43:49;;;;;;;;;;;13.50;99.90;;;;;;4963545;28;19922;-71
2023/10/11 02:46:15;;;;;;;;;;;13.50;99.90;;;;;;4962886;28;19922;-72
2023/10/11 02:48:46;;;;;;;;;;;13.50;99.90;;;;;;4964123;28;20042;-71
2023/10/11 02:51:14;;;;;;;;;;;13.50;99.90;;;;;;4966304;28;20272;-72
2023/10/11 02:53:43;;;;;;;;;;;13.50;99.90;;;;;;4967622;28;19965;-72
2023/10/11 02:56:09;;;;;;;;;;;13.50;99.90;;;;;;4962099;28;19921;-72
2023/10/11 02:58:38;;;;;;;;;;;13.50;99.90;;;;;;4965684;28;19977;-72
2023/10/11 03:01:14;;;;;;;;;;;13.50;99.90;;;;;;4966271;28;19914;-71
2023/10/11 03:03:40;;;;;;;;;;;13.60;99.90;;;;;;4964625;28;20001;-72
2023/10/11 03:06:08;;;;;;;;;;;13.60;99.90;;;;;;4966396;28;19925;-72
2023/10/11 03:08:33;;;;;;;;;;;13.60;99.90;;;;;;4967184;28;19918;-71
2023/10/11 03:11:04;;;;;;;;;;;13.70;99.90;;;;;;4969925;28;19965;-72
2023/10/11 03:13:30;;;;;;;;;;;13.70;99.90;;;;;;4966962;28;19917;-72
2023/10/11 03:15:59;;;;;;;;;;;13.70;99.90;;;;;;4963905;28;20478;-71
2023/10/11 03:18:26;;;;;;;;;;;13.80;99.90;;;;;;4958025;28;19926;-72
2023/10/11 03:21:06;;;;;;;;;;;13.80;99.90;;;;;;4962679;28;19940;-72
2023/10/11 03:23:35;;;;;;;;;;;13.70;99.90;;;;;;4963750;28;19986;-71
2023/10/11 03:26:08;;;;;;;;;;;13.70;99.90;;;;;;4966615;28;20694;-72
2023/10/11 03:28:34;;;;;;;;;;;13.60;99.90;;;;;;4967662;28;19922;-72
2023/10/11 03:31:00;;;;;;;;;;;13.70;99.90;;;;;;4966566;28;19910;-71
2023/10/11 03:33:26;;;;;;;;;;;13.70;99.90;;;;;;4962925;28;19920;-71
2023/10/11 03:35:51;;;;;;;;;;;13.60;99.90;;;;;;4964911;28;19914;-71
2023/10/11 03:38:17;;;;;;;;;;;13.60;99.90;;;;;;4965816;28;20543;-71
2023/10/11 03:40:55;;;;;;;;;;;13.50;99.90;;;;;;4961978;28;20004;-72
2023/10/11 03:43:21;;;;;;;;;;;13.40;99.90;;;;;;4967925;28;20528;-71
2023/10/11 03:45:50;;;;;;;;;;;13.40;99.90;;;;;;4965904;28;19921;-72
2023/10/11 03:48:17;;;;;;;;;;;13.40;99.90;;;;;;4965226;28;19910;-71
2023/10/11 03:50:48;;;;;;;;;;;13.40;99.90;;;;;;4962029;28;20294;-71
2023/10/11 03:53:15;;;;;;;;;;;13.40;99.90;;;;;;4963866;28;19910;-71
2023/10/11 03:55:45;;;;;;;;;;;13.40;99.90;;;;;;4961449;28;19914;-71
2023/10/11 03:58:22;;;;;;;;;;;13.40;99.90;;;;;;4964886;28;21341;-71
2023/10/11 04:00:48;;;;;;;;;;;13.40;99.90;;;;;;4965241;28;20532;-71
2023/10/11 04:03:17;;;;;;;;;;;13.40;99.90;;;;;;4959630;28;19953;-71
2023/10/11 04:05:45;;;;;;;;;;;13.40;99.90;;;;;;4965035;28;20409;-71
2023/10/11 04:08:19;;;;;;;;;;;13.40;99.90;;;;;;4965276;28;20335;-71
2023/10/11 04:10:49;;;;;;;;;;;13.40;99.90;;;;;;4959901;28;19910;-71
2023/10/11 04:13:15;;;;;;;;;;;13.50;99.90;;;;;;4965830;28;19923;-72
2023/10/11 04:15:41;;;;;;;;;;;13.60;99.90;;;;;;4963082;28;19918;-71
2023/10/11 04:18:15;;;;;;;;;;;13.50;99.90;;;;;;4964607;28;20692;-70
2023/10/11 04:20:50;;;;;;;;;;;13.40;99.90;;;;;;4964683;28;20365;-71
2023/10/11 04:23:16;;;;;;;;;;;13.40;99.90;;;;;;4966154;28;19914;-70
2023/10/11 04:25:47;;;;;;;;;;;13.30;99.90;;;;;;4965643;28;20340;-70
2023/10/11 04:28:12;;;;;;;;;;;13.30;99.90;;;;;;4963839;28;20358;-70
2023/10/11 04:30:43;;;;;;;;;;;13.30;99.90;;;;;;4959215;28;19919;-70
2023/10/11 04:33:12;;;;;;;;;;;13.20;99.90;;;;;;4963954;28;19924;-70
2023/10/11 04:35:42;;;;;;;;;;;13.10;99.90;;;;;;4959009;28;19918;-72
2023/10/11 04:38:10;;;;;;;;;;;13.10;99.90;;;;;;4962160;28;19924;-70
2023/10/11 04:40:41;;;;;;;;;;;13.00;99.90;;;;;;4961592;28;19965;-71
2023/10/11 04:43:11;;;;;;;;;;;13.00;99.90;;;;;;4967451;28;20289;-71
2023/10/11 04:45:46;;;;;;;;;;;13.00;99.90;;;;;;4963503;28;19926;-70
2023/10/11 04:48:18;;;;;;;;;;;13.00;99.90;;;;;;4963624;28;19917;-71
2023/10/11 04:50:48;;;;;;;;;;;12.90;99.90;;;;;;4959455;28;19968;-71
2023/10/11 04:53:17;;;;;;;;;;;12.90;99.90;;;;;;4948344;28;19910;-70
2023/10/11 04:55:47;;;;;;;;;;;12.90;99.90;;;;;;4958051;28;19956;-70
2023/10/11 04:58:40;;;;;;;;;;;12.90;99.90;;;;;;4964384;28;20454;-70
2023/10/11 05:01:08;;;;;;;;;;;12.90;99.90;;;;;;4962762;28;20402;-68
2023/10/11 05:03:37;;;;;;;;;;;12.90;99.90;;;;;;4964002;28;19914;-68
2023/10/11 05:06:19;;;;;;;;;;;12.90;99.90;;;;;;4962692;28;19913;-66
2023/10/11 05:08:51;;;;;;;;;;;12.90;99.90;;;;;;4960004;28;19909;-67
2023/10/11 05:11:39;;;;;;;;;;;12.80;99.90;;;;;;4961761;28;19937;-67
2023/10/11 05:14:26;;;;;;;;;;;12.70;99.90;;;;;;4945393;28;20336;-67
2023/10/11 05:16:58;;;;;;;;;;;12.70;99.90;;;;;;4962275;28;19914;-68
2023/10/11 05:19:23;;;;;;;;;;;12.70;99.90;;;;;;4956608;28;19918;-66
2023/10/11 05:21:53;;;;;;;;;;;12.60;99.90;;;;;;4964925;28;19914;-67
2023/10/11 05:27:11;;;;;;;;;;;12.70;99.90;;;;;;4962543;28;19916;-67
2023/10/11 05:30:05;;;;;;;;;;;12.70;99.90;;;;;;4961697;28;20016;-68
2023/10/11 05:32:27;;;;;;;;;;;12.80;99.90;;;;;;4962797;28;19916;-67
2023/10/11 05:35:19;;;;;;;;;;;12.80;99.90;;;;;;4963026;28;19914;-66
2023/10/11 05:51:26;;;;;;;;;;;13.70;99.90;;;;;;4964012;28;20372;-71
2023/10/11 05:53:54;;;;;;;;;;;14.50;99.90;;;;;;4956725;28;21444;-70
2023/10/11 05:56:23;;;;;;;;;;;15.10;99.90;;;;;;4963668;28;20001;-71
2023/10/11 05:58:50;;;;;;;;;;;15.50;99.90;;;;;;4962765;28;20375;-71
2023/10/11 06:01:17;;;;;;;;;;;15.80;99.90;;;;;;4965145;28;19917;-71
2023/10/11 06:03:43;;;;;;;;;;;16.20;99.90;;;;;;4960528;28;19924;-70
2023/10/11 06:06:23;;;;;;;;;;;16.70;99.90;;;;;;4963613;28;20401;-71
2023/10/11 06:08:52;;;;;;;;;;;17.30;99.90;;;;;;4956345;28;19949;-71
2023/10/11 06:11:19;;;;;;;;;;;18.00;99.90;;;;;;4961214;28;20251;-72
2023/10/11 06:13:48;;;;;;;;;;;18.00;99.90;;;;;;4963015;28;19970;-71
2023/10/11 06:16:14;;;;;;;;;;;17.80;99.90;;;;;;4964166;28;20012;-72
2023/10/11 06:18:42;;;;;;;;;;;18.00;99.90;;;;;;4959557;28;20010;-72
2023/10/11 06:23:59;;;;;;;;;;;18.40;99.90;;;;;;4963059;28;19921;-66
2023/10/11 06:26:28;;;;;;;;;;;18.70;99.90;;;;;;4961715;28;19918;-67
2023/10/11 06:29:03;;;;;;;;;;;19.00;99.90;;;;;;4963509;28;19910;-67
2023/10/11 06:31:39;;;;;;;;;;;20.00;99.90;;;;;;4963867;28;19914;-68
2023/10/11 06:34:22;;;;;;;;;;;20.90;99.90;;;;;;4969848;28;20218;-69
2023/10/11 06:36:48;;;;;;;;;;;21.00;99.90;;;;;;4966573;28;19920;-69
2023/10/11 06:42:21;;;;;;;;;;;21.10;99.90;;;;;;4973318;28;19956;-67
2023/10/11 06:45:00;;;;;;;;;;;21.20;99.90;;;;;;4964284;28;19929;-68
2023/10/11 06:47:27;;;;;;;;;;;21.30;99.90;;;;;;4964907;28;19914;-67
2023/10/11 06:49:54;;;;;;;;;;;21.30;99.90;;;;;;4965943;28;19989;-68
2023/10/11 06:52:25;;;;;;;;;;;21.70;99.90;;;;;;4960084;28;21390;-67
2023/10/11 06:55:07;;;;;;;;;;;22.10;99.90;;;;;;4966011;28;20362;-68
2023/10/11 06:57:38;;;;;;;;;;;21.80;99.90;;;;;;4964953;28;20056;-68
2023/10/11 07:00:12;;;;;;;;;;;21.40;99.90;;;;;;4970133;28;19914;-68
2023/10/11 07:02:47;;;;;;;;;;;21.50;99.90;;;;;;4968495;28;19910;-68
2023/10/11 07:05:17;;;;;;;;;;;21.90;99.90;;;;;;4965419;28;19914;-70
2023/10/11 07:07:47;;;;;;;;;;;22.10;99.90;;;;;;4964749;28;19964;-70
2023/10/11 07:10:34;;;;;;;;;;;23.30;99.90;;;;;;4966021;28;19980;-70
2023/10/11 07:13:04;;;;;;;;;;;23.80;99.90;;;;;;4945503;28;19945;-70
2023/10/11 07:15:37;;;;;;;;;;;23.50;99.90;;;;;;4964334;28;20634;-69
2023/10/11 07:18:20;;;;;;;;;;;23.60;99.90;;;;;;4966443;28;19937;-70
2023/10/11 07:20:49;;;;;;;;;;;24.10;99.90;;;;;;4960605;28;20020;-69
2023/10/11 07:23:19;;;;;;;;;;;24.30;99.90;;;;;;4966223;28;19921;-69
2023/10/11 07:25:49;;;;;;;;;;;25.10;99.90;;;;;;4965436;28;19969;-70
2023/10/11 07:28:35;;;;;;;;;;;26.40;97.70;;;;;;4965343;28;19910;-69
2023/10/11 07:31:03;;;;;;;;;;;26.20;97.50;;;;;;4965015;28;20290;-70
2023/10/11 07:33:29;;;;;;;;;;;26.40;96.90;;;;;;4960762;28;20357;-70
2023/10/11 07:35:55;;;;;;;;;;;25.50;97.70;;;;;;4966291;28;19964;-70
2023/10/11 07:38:21;;;;;;;;;;;25.40;96.90;;;;;;4957987;28;19918;-65
2023/10/11 07:40:47;;;;;;;;;;;25.10;97.40;;;;;;4947480;28;20000;-70
2023/10/11 07:43:16;;;;;;;;;;;25.10;97.50;;;;;;4964209;28;20432;-70
2023/10/11 07:45:47;;;;;;;;;;;25.60;97.40;;;;;;4946765;28;20396;-70
2023/10/11 07:48:14;;;;;;;;;;;25.90;97.30;;;;;;4959171;28;20002;-71
2023/10/11 07:50:42;;;;;;;;;;;27.70;94.70;;;;;;4963109;28;19992;-71
2023/10/11 07:53:13;;;;;;;;;;;27.80;94.00;;;;;;4960409;28;19965;-72
2023/10/11 07:55:45;;;;;;;;;;;28.30;92.80;;;;;;4965328;28;19921;-70
2023/10/11 07:58:11;;;;;;;;;;;27.40;93.40;;;;;;4960722;28;20423;-70
2023/10/11 08:00:41;;;;;;;;;;;27.90;92.30;;;;;;4965101;28;19910;-70
2023/10/11 08:03:11;;;;;;;;;;;27.70;92.70;;;;;;4963215;28;19917;-71
2023/10/11 08:05:44;;;;;;;;;;;27.90;92.40;;;;;;4966764;28;19914;-70
2023/10/11 08:08:13;;;;;;;;;;;28.10;91.70;;;;;;4965601;28;19910;-72
2023/10/11 08:10:44;;;;;;;;;;;27.70;91.90;;;;;;4965331;28;19963;-72
2023/10/11 08:13:26;;;;;;;;;;;27.00;92.10;;;;;;4965697;28;19910;-71
2023/10/11 08:15:57;;;;;;;;;;;27.70;91.60;;;;;;4962086;28;19993;-71
2023/10/11 08:18:23;;;;;;;;;;;28.00;91.50;;;;;;4962514;28;19914;-72
2023/10/11 08:20:50;;;;;;;;;;;29.10;90.50;;;;;;4963400;28;19914;-71
2023/10/11 08:23:28;;;;;;;;;;;29.30;89.70;;;;;;4963639;28;19921;-71
2023/10/11 08:25:57;;;;;;;;;;;29.30;90.10;;;;;;4964113;28;20005;-72
2023/10/11 08:28:29;;;;;;;;;;;30.90;86.50;;;;;;4964936;28;19910;-71
2023/10/11 08:30:57;;;;;;;;;;;30.50;84.40;;;;;;4960463;28;19937;-71
2023/10/11 08:33:30;;;;;;;;;;;30.60;84.80;;;;;;4961923;28;20259;-72
2023/10/11 08:35:56;;;;;;;;;;;30.30;83.70;;;;;;4958767;28;20369;-71
2023/10/11 08:38:24;;;;;;;;;;;29.10;86.90;;;;;;4963336;28;19918;-71
2023/10/11 08:40:59;;;;;;;;;;;28.40;88.30;;;;;;4957631;28;20025;-71
2023/10/11 08:43:25;;;;;;;;;;;29.60;87.00;;;;;;4965238;28;19914;-71
2023/10/11 08:46:09;;;;;;;;;;;30.00;86.80;;;;;;4958649;28;19941;-70
2023/10/11 08:48:38;;;;;;;;;;;30.20;85.80;;;;;;4964349;28;19981;-69
2023/10/11 08:51:10;;;;;;;;;;;29.70;85.50;;;;;;4958895;28;19967;-69
2023/10/11 08:53:38;;;;;;;;;;;29.90;86.30;;;;;;4962442;28;19961;-69
2023/10/11 08:56:03;;;;;;;;;;;29.50;86.30;;;;;;4961624;28;19949;-69
2023/10/11 08:58:29;;;;;;;;;;;29.40;86.40;;;;;;4963399;28;19964;-70
2023/10/11 09:00:59;;;;;;;;;;;29.80;86.20;;;;;;4959739;28;19910;-70
2023/10/11 09:03:31;;;;;;;;;;;30.90;85.00;;;;;;4963778;28;19911;-70
2023/10/11 09:06:00;;;;;;;;;;;32.00;83.00;;;;;;4956434;28;20408;-71
2023/10/11 09:08:27;;;;;;;;;;;32.70;81.90;;;;;;4958594;28;19963;-70
2023/10/11 09:11:11;;;;;;;;;;;33.30;79.60;;;;;;4958486;28;19918;-70
2023/10/11 09:13:37;;;;;;;;;;;32.30;80.60;;;;;;4964587;28;19917;-70
2023/10/11 09:16:08;;;;;;;;;;;31.70;80.90;;;;;;4959611;28;19961;-70
2023/10/11 09:18:34;;;;;;;;;;;32.20;79.80;;;;;;4962670;28;20349;-70
2023/10/11 09:21:09;;;;;;;;;;;32.30;79.70;;;;;;4964194;28;19937;-70
2023/10/11 09:23:35;;;;;;;;;;;31.70;80.00;;;;;;4966600;28;20009;-69
2023/10/11 09:26:01;;;;;;;;;;;31.80;79.80;;;;;;4962191;28;20442;-69
2023/10/11 09:28:28;;;;;;;;;;;31.50;78.90;;;;;;4944515;28;19925;-69
2023/10/11 09:31:15;;;;;;;;;;;31.10;80.40;;;;;;4963519;28;19914;-69
2023/10/11 09:33:45;;;;;;;;;;;32.30;78.60;;;;;;4959983;28;19918;-71
2023/10/11 09:36:12;;;;;;;;;;;33.30;76.60;;;;;;4965514;28;19910;-71
2023/10/11 09:38:41;;;;;;;;;;;33.00;76.60;;;;;;4965699;28;19937;-69
2023/10/11 09:41:10;;;;;;;;;;;33.50;75.80;;;;;;4962839;28;19910;-69
2023/10/11 09:43:44;;;;;;;;;;;32.70;75.40;;;;;;4963649;28;19917;-69
2023/10/11 09:46:11;;;;;;;;;;;33.40;75.40;;;;;;4960969;28;19945;-71
2023/10/11 09:48:43;;;;;;;;;;;34.00;72.60;;;;;;4962667;28;19914;-70
2023/10/11 09:51:13;;;;;;;;;;;33.80;73.00;;;;;;4962673;28;19924;-70
2023/10/11 09:53:42;;;;;;;;;;;33.70;72.90;;;;;;4965742;28;19995;-69
2023/10/11 09:56:30;;;;;;;;;;;32.30;74.10;;;;;;4963583;28;19914;-70
2023/10/11 09:58:58;;;;;;;;;;;31.70;74.70;;;;;;4964426;28;19914;-69
2023/10/11 10:01:27;;;;;;;;;;;32.10;75.10;;;;;;4964945;28;20274;-70
2023/10/11 10:03:53;;;;;;;;;;;31.70;74.50;;;;;;4962953;28;19921;-69
2023/10/11 10:06:18;;;;;;;;;;;32.50;74.70;;;;;;4964905;28;19922;-69
2023/10/11 10:08:47;;;;;;;;;;;32.40;73.40;;;;;;4960563;28;19914;-70
2023/10/11 10:11:13;;;;;;;;;;;31.90;74.40;;;;;;4965261;28;19914;-69
2023/10/11 10:14:02;;;;;;;;;;;33.20;74.30;;;;;;4967120;28;20435;-69
2023/10/11 10:16:49;;;;;;;;;;;34.30;72.30;;;;;;4958522;28;19910;-68
2023/10/11 10:19:24;;;;;;;;;;;32.90;73.20;;;;;;4963173;28;19909;-68
2023/10/11 10:22:09;;;;;;;;;;;33.90;73.20;;;;;;4958837;28;19932;-68
2023/10/11 10:24:34;;;;;;;;;;;33.10;73.60;;;;;;4962041;28;20406;-68
2023/10/11 10:27:20;;;;;;;;;;;33.20;73.90;;;;;;4966362;28;20936;-69
2023/10/11 10:29:59;;;;;;;;;;;33.20;72.90;;;;;;4962638;28;20258;-68
2023/10/11 10:32:26;;;;;;;;;;;34.30;73.20;;;;;;4954267;28;19920;-69
2023/10/11 10:35:11;;;;;;;;;;;35.20;71.60;;;;;;4966914;28;19914;-69
2023/10/11 10:37:46;;;;;;;;;;;36.50;69.70;;;;;;4965393;28;19925;-70
2023/10/11 10:40:27;;;;;;;;;;;36.00;69.20;;;;;;4965811;28;19918;-70
2023/10/11 10:43:21;;;;;;;;;;;35.20;69.40;;;;;;4963629;28;19918;-70
2023/10/11 10:45:51;;;;;;;;;;;34.40;70.80;;;;;;4962291;28;20364;-69
2023/10/11 10:48:23;;;;;;;;;;;34.50;70.40;;;;;;4958848;28;19922;-69
2023/10/11 10:50:52;;;;;;;;;;;32.50;70.70;;;;;;4963711;28;19910;-69
2023/10/11 10:53:18;;;;;;;;;;;29.40;74.90;;;;;;4960238;28;20392;-65
2023/10/11 10:55:45;;;;;;;;;;;27.70;78.50;;;;;;4962662;28;19909;-67
2023/10/11 10:58:17;;;;;;;;;;;26.10;82.00;;;;;;4966045;28;20357;-67
2023/10/11 11:00:43;;;;;;;;;;;25.10;86.60;;;;;;4963614;28;20036;-68
2023/10/11 11:03:19;;;;;;;;;;;24.40;89.20;;;;;;4963406;28;20437;-67
2023/10/11 11:06:01;;;;;;;;;;;23.80;91.10;;;;;;4958620;28;19940;-68
2023/10/11 11:08:28;;;;;;;;;;;23.70;91.20;;;;;;4964981;28;20094;-66
2023/10/11 11:10:59;;;;;;;;;;;23.70;91.70;;;;;;4968057;28;20310;-67
2023/10/11 11:13:28;;;;;;;;;;;23.70;91.80;;;;;;4968040;28;19921;-67
2023/10/11 11:15:55;;;;;;;;;;;24.10;92.00;;;;;;4961356;28;19922;-67
2023/10/11 11:18:31;;;;;;;;;;;24.10;92.00;;;;;;4963768;28;19922;-67
2023/10/11 11:20:59;;;;;;;;;;;24.00;92.70;;;;;;4963996;28;19961;-66
2023/10/11 11:23:27;;;;;;;;;;;24.10;92.90;;;;;;4972298;28;19910;-66
2023/10/11 11:25:53;;;;;;;;;;;24.00;93.30;;;;;;4961869;28;19961;-66
2023/10/11 11:28:20;;;;;;;;;;;24.00;93.60;;;;;;4965245;28;20332;-67
2023/10/11 11:30:52;;;;;;;;;;;24.00;93.60;;;;;;4961722;28;19910;-67
2023/10/11 11:33:29;;;;;;;;;;;24.30;93.50;;;;;;4971698;28;20520;-67
2023/10/11 11:35:55;;;;;;;;;;;24.50;92.90;;;;;;4956527;28;20321;-65
2023/10/11 11:38:21;;;;;;;;;;;24.80;92.90;;;;;;4961147;28;19918;-66
2023/10/11 11:40:59;;;;;;;;;;;24.50;93.00;;;;;;4967079;28;20037;-67
2023/10/11 11:43:31;;;;;;;;;;;24.30;93.50;;;;;;4968411;28;19910;-65
2023/10/11 11:46:01;;;;;;;;;;;24.00;93.40;;;;;;4960544;28;19922;-65
2023/10/11 11:48:40;;;;;;;;;;;24.00;94.20;;;;;;4961368;28;19988;-66
2023/10/11 11:51:06;;;;;;;;;;;24.20;93.40;;;;;;4963197;28;19914;-65
2023/10/11 11:53:31;;;;;;;;;;;23.90;94.20;;;;;;4963766;28;19917;-65
2023/10/11 11:55:58;;;;;;;;;;;23.60;94.90;;;;;;4966021;28;19918;-66
2023/10/11 11:58:23;;;;;;;;;;;23.50;95.00;;;;;;4961258;28;20009;-66
2023/10/11 12:03:36;;;;;;;;;;;23.40;94.90;;;;;;4962161;28;19917;-65
2023/10/11 12:06:02;;;;;;;;;;;23.50;94.50;;;;;;4964664;28;20008;-66
2023/10/11 12:08:31;;;;;;;;;;;24.00;93.20;;;;;;4964253;28;19915;-66
2023/10/11 12:10:57;;;;;;;;;;;24.10;92.00;;;;;;4963954;28;19917;-67
2023/10/11 12:13:23;;;;;;;;;;;24.00;92.50;;;;;;4965343;28;19914;-66
2023/10/11 12:15:49;;;;;;;;;;;24.10;92.70;;;;;;4963917;28;19926;-67
2023/10/11 12:18:15;;;;;;;;;;;24.00;93.20;;;;;;4961966;28;20000;-66
2023/10/11 12:20:43;;;;;;;;;;;23.80;93.80;;;;;;4963912;28;19925;-66
2023/10/11 12:23:09;;;;;;;;;;;23.70;93.60;;;;;;4965419;28;19941;-66
2023/10/11 12:25:35;;;;;;;;;;;23.70;93.70;;;;;;4965867;28;19960;-66
2023/10/11 12:28:04;;;;;;;;;;;23.60;93.90;;;;;;4962866;28;19914;-66
2023/10/11 12:30:33;;;;;;;;;;;23.60;94.30;;;;;;4962024;28;19926;-66
2023/10/11 12:32:59;;;;;;;;;;;23.50;94.50;;;;;;4959224;28;19968;-68
2023/10/11 12:35:28;;;;;;;;;;;23.50;95.30;;;;;;4967382;28;19972;-67
2023/10/11 12:38:00;;;;;;;;;;;23.70;95.00;;;;;;4961531;28;19921;-67
2023/10/11 12:40:28;;;;;;;;;;;23.80;94.90;;;;;;4959934;28;20668;-67
2023/10/11 12:42:55;;;;;;;;;;;23.70;95.10;;;;;;4966002;28;20563;-70
2023/10/11 12:45:21;;;;;;;;;;;23.70;95.10;;;;;;4970256;28;20131;-69
2023/10/11 12:47:47;;;;;;;;;;;23.50;95.60;;;;;;4959497;28;19940;-69
2023/10/11 12:50:17;;;;;;;;;;;23.60;95.50;;;;;;4948279;28;20416;-66
2023/10/11 12:52:45;;;;;;;;;;;23.50;96.10;;;;;;4965830;28;19910;-66
2023/10/11 12:55:12;;;;;;;;;;;23.60;95.80;;;;;;4964188;28;20010;-66
2023/10/11 12:57:39;;;;;;;;;;;23.80;95.90;;;;;;4963018;28;19918;-66
2023/10/11 13:00:31;;;;;;;;;;;23.90;96.00;;;;;;4959493;28;19918;-67
2023/10/11 13:03:13;;;;;;;;;;;24.00;95.50;;;;;;4956726;28;19924;-67
2023/10/11 13:05:39;;;;;;;;;;;23.90;95.90;;;;;;4962714;28;19922;-67
2023/10/11 13:08:04;;;;;;;;;;;23.90;96.20;;;;;;4959410;28;19921;-67
2023/10/11 13:10:30;;;;;;;;;;;23.90;96.20;;;;;;4957842;28;19954;-67
2023/10/11 13:12:56;;;;;;;;;;;23.70;96.80;;;;;;4958524;28;19918;-66
2023/10/11 13:15:22;;;;;;;;;;;23.70;96.80;;;;;;4961900;28;20334;-66
2023/10/11 13:17:48;;;;;;;;;;;23.70;97.50;;;;;;4959896;28;19916;-66
2023/10/11 13:20:20;;;;;;;;;;;23.80;97.70;;;;;;4959628;28;20372;-66
2023/10/11 13:22:47;;;;;;;;;;;24.00;97.60;;;;;;4959667;28;20440;-67
2023/10/11 13:25:23;;;;;;;;;;;24.10;97.10;;;;;;4963672;28;19921;-66
2023/10/11 13:27:49;;;;;;;;;;;24.10;97.10;;;;;;4959429;28;19925;-66
2023/10/11 13:30:15;;;;;;;;;;;24.10;97.60;;;;;;4962663;28;20358;-67
2023/10/11 13:32:40;;;;;;;;;;;24.10;97.00;;;;;;4966752;28;19926;-66
2023/10/11 13:35:12;;;;;;;;;;;24.10;97.20;;;;;;4958645;28;19991;-67
2023/10/11 13:37:37;;;;;;;;;;;24.20;97.20;;;;;;4960139;28;19914;-66
2023/10/11 13:40:05;;;;;;;;;;;24.10;97.60;;;;;;4962794;28;20262;-67
2023/10/11 13:42:37;;;;;;;;;;;24.10;97.50;;;;;;4960923;28;19914;-66
2023/10/11 13:45:09;;;;;;;;;;;24.10;97.70;;;;;;4961311;28;19922;-66
2023/10/11 13:47:36;;;;;;;;;;;24.10;97.50;;;;;;4959931;28;19918;-67
2023/10/11 13:50:08;;;;;;;;;;;24.10;97.70;;;;;;4963840;28;19914;-67
2023/10/11 13:52:37;;;;;;;;;;;24.00;98.10;;;;;;4961827;28;19988;-67
2023/10/11 13:55:10;;;;;;;;;;;24.00;98.20;;;;;;4958164;28;19914;-66
2023/10/11 13:57:37;;;;;;;;;;;24.00;98.40;;;;;;4962489;28;19922;-66
2023/10/11 14:00:39;;;;;;;;;;;24.00;98.70;;;;;;4964610;28;19917;-66
2023/10/11 14:02:51;;;;;;;;;;;23.90;99.00;;;;;;4960387;28;19948;-66
2023/10/11 14:05:20;;;;;;;;;;;24.00;99.40;;;;;;4959210;28;19918;-67
2023/10/11 14:07:51;;;;;;;;;;;24.00;99.40;;;;;;4964886;28;20337;-67
2023/10/11 14:10:22;;;;;;;;;;;24.00;99.90;;;;;;4962016;28;19914;-66
2023/10/11 14:12:48;;;;;;;;;;;24.00;99.90;;;;;;4962800;28;19910;-67
2023/10/11 14:15:18;;;;;;;;;;;24.00;99.90;;;;;;4962144;28;19964;-65
2023/10/11 14:17:44;;;;;;;;;;;23.90;99.90;;;;;;4961159;28;19918;-65
2023/10/11 14:20:11;;;;;;;;;;;23.90;99.90;;;;;;4961796;28;19977;-66
2023/10/11 14:22:36;;;;;;;;;;;23.90;99.90;;;;;;4958321;28;20538;-66
2023/10/11 14:25:07;;;;;;;;;;;23.80;99.90;;;;;;4962862;28;19914;-66
2023/10/11 14:27:33;;;;;;;;;;;23.80;99.90;;;;;;4957172;28;19922;-65
2023/10/11 14:29:59;;;;;;;;;;;23.60;99.90;;;;;;4962030;28;19977;-65
2023/10/11 14:32:24;;;;;;;;;;;23.60;99.90;;;;;;4957331;28;19921;-66
2023/10/11 14:34:51;;;;;;;;;;;23.50;99.90;;;;;;4963368;28;19992;-65
2023/10/11 14:37:19;;;;;;;;;;;23.50;99.90;;;;;;4960171;28;19949;-66
2023/10/11 14:39:48;;;;;;;;;;;23.30;99.90;;;;;;4959514;28;19994;-66
2023/10/11 14:42:14;;;;;;;;;;;23.40;99.90;;;;;;4964909;28;20365;-65
2023/10/11 14:44:40;;;;;;;;;;;23.40;99.90;;;;;;4957783;28;19924;-65
2023/10/11 14:47:06;;;;;;;;;;;23.20;99.90;;;;;;4963439;28;19921;-65
2023/10/11 14:49:35;;;;;;;;;;;23.10;99.90;;;;;;4943494;28;20392;-65
2023/10/11 14:52:00;;;;;;;;;;;23.10;99.90;;;;;;4967229;28;19965;-66
2023/10/11 14:54:28;;;;;;;;;;;23.00;99.90;;;;;;4959642;28;20004;-66
2023/10/11 14:56:53;;;;;;;;;;;22.90;99.90;;;;;;4965970;28;19914;-65